Time;durP1;ratioP1;P1;durP2;ratioP2;P2;SDS_P1;SDS_P2;PMS_P1;PMS_P2;Temp;Humidity;BMP_temperature;BMP_pressure;BME280_temperature;BME280_humidity;BME280_pressure;Samples;Min_cycle;Max_cycle;Signal;HPM_P1;HPM_P2
2024/01/17 00:01:24;;;;;;;13.02;8.10;;;;;;;-2.34;79.76;96768.50;4247484;27;20214;-85
2024/01/17 00:03:26;;;;;;;13.73;8.02;;;;;;;-2.34;79.55;96760.84;4233532;27;20907;-85
2024/01/17 00:05:30;;;;;;;11.63;7.38;;;;;;;-2.39;80.14;96747.44;4253727;27;20214;-84
2024/01/17 00:07:33;;;;;;;12.75;7.88;;;;;;;-2.39;79.97;96738.94;4223493;27;20200;-84
2024/01/17 00:09:36;;;;;;;16.17;7.35;;;;;;;-2.41;79.69;96733.09;4240262;27;20619;-85
2024/01/17 00:11:42;;;;;;;12.40;7.22;;;;;;;-2.39;79.85;96732.13;4237914;27;20211;-85
2024/01/17 00:13:45;;;;;;;13.75;7.65;;;;;;;-2.38;80.18;96725.31;4237588;27;20647;-84
2024/01/17 00:15:48;;;;;;;13.43;7.57;;;;;;;-2.37;79.77;96716.78;4232800;27;20838;-85
2024/01/17 00:17:51;;;;;;;16.63;8.27;;;;;;;-2.42;79.99;96706.75;4218632;27;20407;-84
2024/01/17 00:19:54;;;;;;;11.30;7.13;;;;;;;-2.41;80.30;96705.84;4235484;27;20249;-84
2024/01/17 00:21:57;;;;;;;16.92;9.05;;;;;;;-2.41;79.77;96710.13;4216681;27;20705;-85
2024/01/17 00:24:00;;;;;;;13.80;7.68;;;;;;;-2.41;80.19;96722.88;4234391;27;20227;-85
2024/01/17 00:26:04;;;;;;;13.50;8.40;;;;;;;-2.41;80.94;96733.09;4218300;27;20200;-85
2024/01/17 00:28:08;;;;;;;12.20;8.05;;;;;;;-2.42;80.95;96731.41;4215951;28;20216;-84
2024/01/17 00:30:12;;;;;;;16.38;7.90;;;;;;;-2.36;80.77;96723.50;4228806;27;20232;-85
2024/01/17 00:32:15;;;;;;;13.18;7.95;;;;;;;-2.31;80.57;96720.72;4217796;27;20662;-85
2024/01/17 00:34:19;;;;;;;13.88;7.28;;;;;;;-2.32;80.07;96719.03;4234352;27;20216;-85
2024/01/17 00:36:22;;;;;;;12.73;7.10;;;;;;;-2.34;80.14;96709.00;4217570;27;20292;-84
2024/01/17 00:38:24;;;;;;;14.52;7.57;;;;;;;-2.37;80.03;96707.38;4218588;27;20223;-85
2024/01/17 00:40:30;;;;;;;13.13;7.30;;;;;;;-2.39;79.79;96711.72;4214052;27;20218;-85
2024/01/17 00:42:34;;;;;;;15.77;7.75;;;;;;;-2.36;80.25;96708.19;4247443;27;20205;-85
2024/01/17 00:44:39;;;;;;;14.80;7.18;;;;;;;-2.39;80.21;96709.19;4231237;27;20204;-85
2024/01/17 00:46:42;;;;;;;14.45;6.80;;;;;;;-2.43;80.43;96707.63;4215968;27;20204;-84
2024/01/17 00:48:45;;;;;;;15.48;7.43;;;;;;;-2.38;80.37;96699.78;4246293;27;20916;-85
2024/01/17 00:50:49;;;;;;;12.23;6.93;;;;;;;-2.37;80.12;96709.94;4251919;27;20204;-85
2024/01/17 00:52:52;;;;;;;11.80;7.90;;;;;;;-2.36;80.54;96698.84;4233875;27;20208;-85
2024/01/17 00:54:55;;;;;;;11.52;7.53;;;;;;;-2.34;80.34;96697.06;4235926;27;20223;-85
2024/01/17 00:56:59;;;;;;;12.88;7.28;;;;;;;-2.37;80.03;96688.69;4232626;27;20253;-84
2024/01/17 00:59:02;;;;;;;12.90;7.70;;;;;;;-2.39;80.39;96693.03;4231698;27;20212;-85
2024/01/17 01:01:07;;;;;;;13.15;7.25;;;;;;;-2.36;80.59;96687.78;4216707;27;20763;-85
2024/01/17 01:03:10;;;;;;;11.93;7.45;;;;;;;-2.38;80.50;96692.13;4235609;27;21527;-85
2024/01/17 01:05:14;;;;;;;15.60;8.40;;;;;;;-2.34;80.28;96701.34;4249703;27;20211;-85
2024/01/17 01:07:18;;;;;;;13.98;8.00;;;;;;;-2.32;80.53;96690.97;4250286;27;20217;-85
2024/01/17 01:09:20;;;;;;;13.70;8.25;;;;;;;-2.32;80.81;96690.97;4217596;27;20204;-85
2024/01/17 01:11:24;;;;;;;15.90;8.32;;;;;;;-2.25;80.41;96691.56;4229608;27;20237;-85
2024/01/17 01:13:27;;;;;;;14.43;7.50;;;;;;;-2.26;80.45;96690.72;4218931;27;20469;-85
2024/01/17 01:15:30;;;;;;;13.13;8.25;;;;;;;-2.24;80.72;96681.31;4212839;27;20639;-85
2024/01/17 01:17:34;;;;;;;18.23;9.27;;;;;;;-2.22;80.40;96679.50;4216337;28;20212;-85
2024/01/17 01:19:38;;;;;;;13.98;7.85;;;;;;;-2.23;80.13;96677.84;4230773;27;20204;-85
2024/01/17 01:21:42;;;;;;;14.70;8.75;;;;;;;-2.24;79.98;96670.25;4230734;27;20716;-84
2024/01/17 01:23:45;;;;;;;11.85;7.57;;;;;;;-2.25;80.33;96669.44;4250136;27;20218;-85
2024/01/17 01:25:48;;;;;;;14.82;8.05;;;;;;;-2.25;80.98;96681.38;4247756;27;20191;-85
2024/01/17 01:27:51;;;;;;;16.38;8.90;;;;;;;-2.22;80.97;96681.25;4217858;27;20596;-85
2024/01/17 01:29:55;;;;;;;11.05;8.30;;;;;;;-2.21;81.29;96688.84;4214082;27;20204;-85
2024/01/17 01:31:59;;;;;;;16.77;8.48;;;;;;;-2.18;80.68;96686.16;4229958;27;20200;-85
2024/01/17 01:34:03;;;;;;;16.33;8.57;;;;;;;-2.16;81.13;96684.34;4226989;27;20239;-84
2024/01/17 01:36:07;;;;;;;15.32;7.95;;;;;;;-2.14;80.93;96685.13;4232509;27;21580;-85
2024/01/17 01:38:10;;;;;;;12.98;8.32;;;;;;;-2.13;81.12;96686.78;4219160;27;20216;-85
2024/01/17 01:40:13;;;;;;;13.60;7.60;;;;;;;-2.12;81.26;96683.34;4229484;27;20200;-85
2024/01/17 01:42:16;;;;;;;14.35;7.68;;;;;;;-2.09;81.26;96683.22;4214821;27;20200;-85
2024/01/17 01:44:19;;;;;;;12.80;8.85;;;;;;;-2.09;81.60;96678.13;4216493;27;20302;-85
2024/01/17 01:46:26;;;;;;;12.15;7.85;;;;;;;-2.09;81.41;96680.66;4234040;27;20235;-84
2024/01/17 01:48:29;;;;;;;19.33;8.38;;;;;;;-2.06;81.67;96680.53;4231843;27;20310;-85
2024/01/17 01:50:33;;;;;;;14.30;7.75;;;;;;;-2.03;81.57;96667.66;4229669;27;20208;-84
2024/01/17 01:52:37;;;;;;;12.65;7.43;;;;;;;-2.00;81.77;96664.97;4233324;27;20294;-84
2024/01/17 01:54:40;;;;;;;13.10;8.57;;;;;;;-2.00;82.01;96652.19;4221138;27;20272;-84
2024/01/17 01:56:44;;;;;;;16.83;7.90;;;;;;;-2.01;81.67;96655.63;4237098;27;20215;-85
2024/01/17 01:58:48;;;;;;;11.80;7.53;;;;;;;-2.01;81.89;96631.84;4246904;27;20223;-84
2024/01/17 02:00:53;;;;;;;14.68;7.90;;;;;;;-1.98;81.53;96632.53;4233592;27;20287;-85
2024/01/17 02:02:57;;;;;;;15.88;9.02;;;;;;;-1.97;81.23;96629.09;4235973;27;20240;-85
2024/01/17 02:05:03;;;;;;;13.20;7.75;;;;;;;-1.94;82.03;96621.25;4235267;27;20222;-85
2024/01/17 02:07:08;;;;;;;11.32;7.68;;;;;;;-1.89;81.61;96619.38;4232620;27;22016;-85
2024/01/17 02:09:12;;;;;;;14.73;8.65;;;;;;;-1.89;81.93;96627.03;4232475;27;20205;-85
2024/01/17 02:11:17;;;;;;;14.65;8.45;;;;;;;-1.85;81.60;96608.09;4214911;28;20576;-85
2024/01/17 02:13:19;;;;;;;17.25;9.13;;;;;;;-1.82;81.44;96605.41;4215816;28;20200;-84
2024/01/17 02:15:22;;;;;;;17.58;9.50;;;;;;;-1.82;81.96;96601.16;4211288;28;20240;-85
2024/01/17 02:17:25;;;;;;;13.65;8.23;;;;;;;-1.80;81.70;96596.78;4233871;27;20211;-85
2024/01/17 02:19:28;;;;;;;16.33;8.68;;;;;;;-1.78;82.17;96589.06;4229751;27;20254;-84
2024/01/17 02:21:31;;;;;;;12.60;7.80;;;;;;;-1.74;81.76;96582.94;4219354;28;20224;-85
2024/01/17 02:23:36;;;;;;;13.73;8.25;;;;;;;-1.73;81.80;96575.22;4233970;27;20214;-85
2024/01/17 02:25:41;;;;;;;15.50;8.65;;;;;;;-1.69;81.88;96581.00;4233123;27;20200;-85
2024/01/17 02:27:44;;;;;;;17.15;8.60;;;;;;;-1.65;82.32;96585.91;4246508;27;20585;-85
2024/01/17 02:29:48;;;;;;;14.10;8.20;;;;;;;-1.58;82.21;96579.63;4216544;28;20209;-85
2024/01/17 02:31:52;;;;;;;13.43;8.20;;;;;;;-1.59;81.74;96575.41;4227393;27;20201;-85
2024/01/17 02:33:55;;;;;;;13.52;7.97;;;;;;;-1.55;81.58;96573.53;4217920;28;20213;-85
2024/01/17 02:35:59;;;;;;;13.30;8.85;;;;;;;-1.55;81.23;96571.78;4213522;28;20239;-85
2024/01/17 02:38:02;;;;;;;16.23;9.25;;;;;;;-1.52;81.42;96583.59;4234495;27;20203;-85
2024/01/17 02:40:06;;;;;;;15.50;8.35;;;;;;;-1.51;81.62;96583.53;4229142;27;21363;-85
2024/01/17 02:42:10;;;;;;;14.18;9.10;;;;;;;-1.48;81.22;96574.91;4236902;27;20228;-85
2024/01/17 02:44:16;;;;;;;12.90;8.27;;;;;;;-1.45;81.83;96567.91;4246147;27;20207;-85
2024/01/17 02:46:19;;;;;;;14.80;9.00;;;;;;;-1.41;81.30;96567.72;4249039;27;20547;-85
2024/01/17 02:48:22;;;;;;;14.10;7.85;;;;;;;-1.40;81.06;96568.53;4219183;28;20215;-85
2024/01/17 02:50:26;;;;;;;15.52;8.48;;;;;;;-1.44;81.34;96561.06;4221575;27;20727;-85
2024/01/17 02:52:30;;;;;;;16.35;9.15;;;;;;;-1.40;81.67;96558.31;4218668;27;20214;-85
2024/01/17 02:54:33;;;;;;;13.70;8.55;;;;;;;-1.38;81.81;96557.34;4233768;27;20326;-85
2024/01/17 02:56:36;;;;;;;14.48;8.40;;;;;;;-1.37;81.86;96551.34;4234894;27;20233;-85
2024/01/17 02:58:41;;;;;;;13.20;9.23;;;;;;;-1.35;81.29;96554.66;4248548;27;20195;-85
2024/01/17 03:00:44;;;;;;;15.48;9.23;;;;;;;-1.34;82.06;96552.91;4234347;27;20211;-85
2024/01/17 03:02:47;;;;;;;16.02;9.93;;;;;;;-1.33;82.24;96544.34;4218755;27;20207;-85
2024/01/17 03:04:51;;;;;;;18.70;9.68;;;;;;;-1.32;81.86;96541.72;4217360;27;21213;-85
2024/01/17 03:06:54;;;;;;;14.98;9.13;;;;;;;-1.29;81.71;96548.44;4251867;27;20213;-85
2024/01/17 03:08:57;;;;;;;13.52;8.90;;;;;;;-1.27;81.44;96547.44;4232383;27;20226;-85
2024/01/17 03:11:00;;;;;;;15.05;8.65;;;;;;;-1.26;81.79;96540.63;4217036;27;20736;-85
2024/01/17 03:13:04;;;;;;;12.70;8.52;;;;;;;-1.24;81.31;96538.81;4256510;27;20303;-85
2024/01/17 03:15:10;;;;;;;16.52;9.05;;;;;;;-1.20;81.58;96540.31;4251388;27;20206;-85
2024/01/17 03:17:13;;;;;;;15.02;8.95;;;;;;;-1.20;82.05;96535.22;4249218;27;20216;-85
2024/01/17 03:19:17;;;;;;;14.20;8.48;;;;;;;-1.19;81.79;96531.72;4219390;27;20209;-85
2024/01/17 03:21:20;;;;;;;16.05;9.40;;;;;;;-1.16;82.15;96522.19;4251357;27;20219;-85
2024/01/17 03:23:23;;;;;;;13.18;8.43;;;;;;;-1.14;82.34;96524.66;4217236;27;20295;-85
2024/01/17 03:25:26;;;;;;;14.00;8.40;;;;;;;-1.10;82.39;96526.19;4216131;27;20214;-85
2024/01/17 03:27:30;;;;;;;12.95;7.82;;;;;;;-1.10;82.16;96521.88;4236754;27;20260;-85
2024/01/17 03:29:33;;;;;;;14.23;9.00;;;;;;;-1.09;82.48;96515.06;4233115;27;20203;-85
2024/01/17 03:31:37;;;;;;;16.98;9.40;;;;;;;-1.12;82.38;96495.56;4217430;28;20208;-84
2024/01/17 03:33:41;;;;;;;17.10;8.80;;;;;;;-1.13;83.02;96493.91;4217803;27;20612;-84
2024/01/17 03:35:44;;;;;;;15.40;9.35;;;;;;;-1.11;82.73;96494.69;4249112;27;20215;-85
2024/01/17 03:37:48;;;;;;;15.60;8.95;;;;;;;-1.10;82.16;96487.84;4224322;28;20219;-85
2024/01/17 03:39:50;;;;;;;12.68;8.35;;;;;;;-1.06;82.64;96487.59;4236766;27;20196;-84
2024/01/17 03:41:53;;;;;;;15.63;9.80;;;;;;;-1.03;82.87;96494.31;4220121;28;20700;-84
2024/01/17 03:43:58;;;;;;;15.82;9.30;;;;;;;-1.00;83.10;96482.19;4217554;27;20260;-84
2024/01/17 03:46:01;;;;;;;15.50;9.57;;;;;;;-0.98;82.89;96485.50;4251426;27;20260;-84
2024/01/17 03:48:06;;;;;;;14.25;8.85;;;;;;;-0.96;82.74;96483.72;4232102;27;20204;-84
2024/01/17 03:50:09;;;;;;;14.57;8.73;;;;;;;-0.93;82.83;96483.56;4233185;27;20196;-84
2024/01/17 03:52:12;;;;;;;18.33;9.30;;;;;;;-0.90;82.18;96480.84;4217093;28;20195;-84
2024/01/17 03:54:15;;;;;;;16.10;9.55;;;;;;;-0.89;82.27;96475.66;4237105;27;20215;-85
2024/01/17 03:56:19;;;;;;;13.68;9.20;;;;;;;-0.85;81.89;96481.44;4212217;28;20248;-85
2024/01/17 03:58:22;;;;;;;14.05;8.65;;;;;;;-0.84;82.42;96475.44;4232476;27;20237;-84
2024/01/17 04:00:25;;;;;;;13.75;8.30;;;;;;;-0.82;82.74;96471.06;4234470;27;20306;-85
2024/01/17 04:02:28;;;;;;;14.07;8.63;;;;;;;-0.77;82.41;96472.47;4231550;27;20354;-85
2024/01/17 04:04:33;;;;;;;13.88;9.52;;;;;;;-0.74;82.78;96468.94;4219275;27;20240;-85
2024/01/17 04:06:36;;;;;;;16.20;8.43;;;;;;;-0.72;82.78;96460.28;4251866;27;20204;-85
2024/01/17 04:08:39;;;;;;;13.02;9.02;;;;;;;-0.70;82.53;96458.47;4217371;27;20663;-84
2024/01/17 04:10:42;;;;;;;15.32;9.57;;;;;;;-0.67;82.23;96465.16;4218588;27;20241;-84
2024/01/17 04:12:46;;;;;;;12.52;8.32;;;;;;;-0.66;81.98;96459.13;4219037;28;20254;-85
2024/01/17 04:14:49;;;;;;;15.98;9.48;;;;;;;-0.63;82.24;96448.72;4235370;27;20714;-84
2024/01/17 04:16:52;;;;;;;11.25;7.60;;;;;;;-0.66;82.98;96451.44;4250839;27;20218;-84
2024/01/17 04:18:59;;;;;;;15.50;8.80;;;;;;;-0.66;83.75;96446.31;4233765;27;20225;-85
2024/01/17 04:21:04;;;;;;;16.40;8.80;;;;;;;-0.66;82.85;96436.94;4217292;27;20236;-84
2024/01/17 04:23:08;;;;;;;16.80;8.70;;;;;;;-0.69;82.99;96428.56;4230353;27;20298;-84
2024/01/17 04:25:12;;;;;;;14.65;8.57;;;;;;;-0.71;83.33;96413.31;4213741;27;20231;-84
2024/01/17 04:27:15;;;;;;;15.85;9.48;;;;;;;-0.65;83.42;96407.06;4231488;27;20206;-84
2024/01/17 04:29:18;;;;;;;16.33;9.55;;;;;;;-0.67;84.14;96399.47;4233151;27;20212;-84
2024/01/17 04:31:25;;;;;;;11.77;7.97;;;;;;;-0.64;84.26;96393.38;4230765;27;20330;-85
2024/01/17 04:33:27;;;;;;;15.25;8.80;;;;;;;-0.63;84.88;96385.63;4239702;27;20712;-85
2024/01/17 04:35:31;;;;;;;16.67;9.50;;;;;;;-0.60;85.01;96376.94;4234323;27;20207;-84
2024/01/17 04:37:35;;;;;;;15.38;8.95;;;;;;;-0.57;85.65;96377.63;4247864;27;20309;-85
2024/01/17 04:39:39;;;;;;;16.60;8.50;;;;;;;-0.51;85.83;96373.88;4249059;27;20293;-85
2024/01/17 04:41:42;;;;;;;17.80;9.65;;;;;;;-0.45;85.98;96364.19;4223627;27;20207;-84
2024/01/17 04:43:44;;;;;;;14.68;9.10;;;;;;;-0.41;86.03;96361.38;4249068;27;20210;-85
2024/01/17 04:45:48;;;;;;;14.32;9.43;;;;;;;-0.38;86.21;96360.38;4215309;28;20204;-85
2024/01/17 04:47:51;;;;;;;16.75;9.50;;;;;;;-0.34;86.06;96354.19;4231200;27;20261;-86
2024/01/17 04:49:55;;;;;;;25.15;11.80;;;;;;;-0.30;85.83;96347.97;4218396;27;20670;-85
2024/01/17 04:51:59;;;;;;;19.60;11.35;;;;;;;-0.30;85.46;96347.97;4229053;27;20228;-85
2024/01/17 04:54:04;;;;;;;20.08;10.70;;;;;;;-0.28;85.43;96352.09;4238601;27;20211;-85
2024/01/17 04:56:06;;;;;;;14.73;9.95;;;;;;;-0.23;86.01;96350.09;4227494;27;20661;-86
2024/01/17 04:58:09;;;;;;;16.40;9.90;;;;;;;-0.19;85.41;96353.34;4230818;27;20346;-85
2024/01/17 05:00:14;;;;;;;13.82;9.02;;;;;;;-0.15;85.62;96353.09;4249535;27;20210;-85
2024/01/17 05:02:18;;;;;;;14.95;8.57;;;;;;;-0.11;85.24;96348.63;4233190;27;20232;-85
2024/01/17 05:04:22;;;;;;;15.18;9.32;;;;;;;-0.10;85.45;96335.75;4231672;27;20207;-85
2024/01/17 05:06:25;;;;;;;17.05;9.30;;;;;;;-0.06;85.09;96334.66;4250686;27;20841;-85
2024/01/17 05:08:28;;;;;;;16.15;9.80;;;;;;;-0.04;85.06;96326.91;4230400;27;20238;-85
2024/01/17 05:10:33;;;;;;;14.82;9.35;;;;;;;-0.04;85.09;96321.78;4212284;27;20232;-85
2024/01/17 05:12:36;;;;;;;16.40;9.68;;;;;;;-0.03;85.42;96323.41;4233742;27;20334;-85
2024/01/17 05:14:39;;;;;;;16.80;9.80;;;;;;;-0.01;85.35;96325.81;4230530;27;20326;-85
2024/01/17 05:16:42;;;;;;;21.80;11.65;;;;;;;0.01;85.22;96311.16;4233362;27;20208;-85
2024/01/17 05:18:46;;;;;;;17.35;9.75;;;;;;;0.05;84.95;96319.53;4233347;27;20820;-85
2024/01/17 05:20:49;;;;;;;18.33;10.65;;;;;;;0.09;85.00;96310.72;4233224;27;20926;-85
2024/01/17 05:22:53;;;;;;;16.02;10.75;;;;;;;0.11;85.52;96307.19;4229995;27;20203;-85
2024/01/17 05:24:56;;;;;;;22.20;12.07;;;;;;;0.15;85.28;96300.16;4236210;27;20623;-85
2024/01/17 05:27:00;;;;;;;20.67;11.57;;;;;;;0.16;84.83;96296.69;4231166;27;20253;-85
2024/01/17 05:29:04;;;;;;;20.60;12.15;;;;;;;0.16;85.24;96287.25;4232722;27;20230;-85
2024/01/17 05:31:07;;;;;;;17.42;10.55;;;;;;;0.15;85.83;96280.50;4227828;27;20217;-85
2024/01/17 05:33:10;;;;;;;19.42;10.80;;;;;;;0.18;86.30;96274.34;4220301;27;20292;-85
2024/01/17 05:35:14;;;;;;;18.25;10.57;;;;;;;0.22;86.06;96275.84;4214650;28;20231;-85
2024/01/17 05:37:19;;;;;;;17.52;10.88;;;;;;;0.23;86.46;96262.94;4228635;27;20219;-85
2024/01/17 05:39:22;;;;;;;20.08;12.45;;;;;;;0.27;86.50;96261.00;4214904;27;20252;-85
2024/01/17 05:41:25;;;;;;;16.45;11.13;;;;;;;0.30;86.52;96250.59;4233371;27;21190;-86
2024/01/17 05:43:30;;;;;;;17.73;11.10;;;;;;;0.31;86.39;96253.06;4233320;27;20688;-85
2024/01/17 05:45:33;;;;;;;17.83;11.95;;;;;;;0.31;86.86;96239.44;4216900;27;20211;-85
2024/01/17 05:47:36;;;;;;;19.75;11.27;;;;;;;0.32;87.41;96236.78;4234383;27;20195;-85
2024/01/17 05:49:40;;;;;;;19.63;11.70;;;;;;;0.36;87.21;96222.88;4219171;27;20195;-85
2024/01/17 05:51:43;;;;;;;21.88;12.05;;;;;;;0.33;86.79;96211.97;4229346;27;20195;-85
2024/01/17 05:53:46;;;;;;;18.75;11.00;;;;;;;0.34;87.17;96206.75;4219442;27;20238;-86
2024/01/17 05:55:49;;;;;;;18.70;11.30;;;;;;;0.36;87.27;96202.38;4246881;27;20202;-85
2024/01/17 05:57:53;;;;;;;19.98;12.23;;;;;;;0.37;87.64;96198.06;4230154;27;20231;-85
2024/01/17 05:59:57;;;;;;;16.52;10.52;;;;;;;0.42;87.75;96196.06;4230466;27;20204;-85
2024/01/17 06:02:00;;;;;;;19.52;12.27;;;;;;;0.42;87.81;96184.06;4230892;27;20192;-85
2024/01/17 06:04:03;;;;;;;20.63;11.63;;;;;;;0.46;87.77;96189.84;4229529;27;20214;-85
2024/01/17 06:06:07;;;;;;;16.30;11.10;;;;;;;0.48;87.85;96189.66;4230578;27;20233;-85
2024/01/17 06:08:10;;;;;;;16.73;11.45;;;;;;;0.50;87.99;96175.00;4232595;27;20195;-85
2024/01/17 06:10:14;;;;;;;19.33;12.20;;;;;;;0.53;88.26;96171.44;4260397;27;20277;-85
2024/01/17 06:12:16;;;;;;;17.48;11.70;;;;;;;0.55;87.92;96178.09;4248508;27;20613;-85
2024/01/17 06:14:19;;;;;;;22.63;10.90;;;;;;;0.57;88.19;96168.59;4233618;27;20637;-85
2024/01/17 06:16:23;;;;;;;19.80;11.10;;;;;;;0.59;87.71;96166.75;4229418;27;20211;-85
2024/01/17 06:18:26;;;;;;;21.23;11.88;;;;;;;0.58;87.78;96154.84;4246963;27;21218;-85
2024/01/17 06:20:30;;;;;;;16.35;10.68;;;;;;;0.63;88.12;96152.00;4217116;27;20279;-85
2024/01/17 06:22:33;;;;;;;17.42;11.00;;;;;;;0.63;88.05;96139.19;4247212;27;20227;-85
2024/01/17 06:24:37;;;;;;;17.75;11.63;;;;;;;0.65;88.51;96142.50;4219258;28;20898;-85
2024/01/17 06:26:39;;;;;;;19.88;11.40;;;;;;;0.68;87.90;96126.94;4232672;27;20712;-86
2024/01/17 06:28:42;;;;;;;17.40;11.27;;;;;;;0.71;87.57;96122.44;4226468;27;20630;-85
2024/01/17 06:30:46;;;;;;;20.48;12.70;;;;;;;0.68;88.21;96114.94;4229542;27;20207;-85
2024/01/17 06:32:50;;;;;;;20.80;12.88;;;;;;;0.70;88.55;96113.06;4232838;27;20203;-85
2024/01/17 06:34:53;;;;;;;20.30;12.75;;;;;;;0.72;88.43;96108.69;4231524;27;20218;-85
2024/01/17 06:36:57;;;;;;;17.05;11.57;;;;;;;0.75;88.04;96116.19;4217130;28;20244;-85
2024/01/17 06:39:01;;;;;;;20.90;12.13;;;;;;;0.78;88.34;96118.53;4250205;27;20254;-85
2024/01/17 06:41:04;;;;;;;19.30;12.25;;;;;;;0.79;87.96;96109.94;4228528;27;20649;-85
2024/01/17 06:43:07;;;;;;;19.52;12.40;;;;;;;0.79;89.09;96107.38;4234301;27;20216;-86
2024/01/17 06:45:11;;;;;;;16.77;11.40;;;;;;;0.80;88.29;96111.59;4235594;27;20250;-85
2024/01/17 06:47:14;;;;;;;16.42;12.05;;;;;;;0.85;88.82;96119.00;4247193;27;20227;-85
2024/01/17 06:49:18;;;;;;;20.55;11.15;;;;;;;0.86;89.25;96121.47;4248671;27;20199;-85
2024/01/17 06:51:21;;;;;;;20.42;12.23;;;;;;;0.89;88.80;96105.91;4213050;28;20249;-86
2024/01/17 06:53:24;;;;;;;16.67;12.30;;;;;;;0.93;88.60;96104.78;4231757;27;20208;-86
2024/01/17 06:55:27;;;;;;;22.48;13.05;;;;;;;0.95;89.34;96110.66;4225836;28;20228;-86
2024/01/17 06:57:31;;;;;;;26.05;14.35;;;;;;;0.96;88.86;96097.72;4217851;28;20242;-85
2024/01/17 06:59:33;;;;;;;24.75;12.68;;;;;;;0.98;89.36;96088.19;4236928;27;20247;-85
2024/01/17 07:01:36;;;;;;;23.25;12.98;;;;;;;1.03;88.86;96085.31;4239309;27;20241;-85
2024/01/17 07:03:39;;;;;;;58.65;28.83;;;;;;;1.05;89.11;96083.47;4247377;27;20206;-85
2024/01/17 07:05:44;;;;;;;74.28;34.70;;;;;;;1.04;88.96;96079.28;4210094;28;20535;-85
2024/01/17 07:07:47;;;;;;;25.48;14.30;;;;;;;1.03;89.33;96075.06;4246850;27;20202;-85
2024/01/17 07:09:50;;;;;;;19.00;11.38;;;;;;;1.06;88.70;96083.38;4231021;27;20229;-85
2024/01/17 07:11:54;;;;;;;18.08;12.20;;;;;;;1.06;88.38;96080.00;4216182;28;20232;-86
2024/01/17 07:13:57;;;;;;;18.13;11.35;;;;;;;1.05;88.73;96075.78;4222096;28;20204;-86
2024/01/17 07:16:01;;;;;;;19.00;12.48;;;;;;;1.08;88.65;96076.44;4217399;28;20201;-86
2024/01/17 07:18:05;;;;;;;25.45;12.88;;;;;;;1.11;88.83;96071.09;4229484;27;20294;-85
2024/01/17 07:20:10;;;;;;;19.40;12.70;;;;;;;1.14;89.21;96065.78;4211176;28;20208;-86
2024/01/17 07:22:14;;;;;;;19.65;13.07;;;;;;;1.15;88.88;96064.84;4248678;27;20233;-85
2024/01/17 07:24:16;;;;;;;19.38;12.70;;;;;;;1.14;89.40;96064.94;4229062;27;20200;-86
2024/01/17 07:26:20;;;;;;;21.38;13.00;;;;;;;1.13;89.69;96048.72;4246521;27;20735;-86
2024/01/17 07:28:23;;;;;;;19.73;14.25;;;;;;;1.17;90.09;96054.47;4251107;27;20194;-85
2024/01/17 07:30:27;;;;;;;19.40;13.43;;;;;;;1.19;89.18;96050.91;4211827;28;20254;-85
2024/01/17 07:32:29;;;;;;;21.63;12.90;;;;;;;1.19;90.42;96040.63;4230858;27;20239;-86
2024/01/17 07:34:32;;;;;;;24.83;14.68;;;;;;;1.22;90.44;96043.00;4233267;27;20211;-86
2024/01/17 07:36:35;;;;;;;23.38;14.13;;;;;;;1.26;90.56;96038.47;4250423;27;20213;-85
2024/01/17 07:38:39;;;;;;;25.52;14.63;;;;;;;1.31;90.69;96041.56;4241741;27;20219;-86
2024/01/17 07:40:43;;;;;;;20.70;14.18;;;;;;;1.35;90.49;96040.44;4250572;27;20195;-85
2024/01/17 07:42:46;;;;;;;22.08;14.77;;;;;;;1.38;90.32;96032.53;4254688;27;21249;-84
2024/01/17 07:44:49;;;;;;;20.90;13.25;;;;;;;1.41;90.74;96039.13;4234065;27;20235;-85
2024/01/17 07:46:53;;;;;;;21.08;13.50;;;;;;;1.43;90.38;96032.16;4235988;27;20199;-87
2024/01/17 07:48:56;;;;;;;20.90;13.45;;;;;;;1.46;90.31;96023.44;4226233;28;20203;-86
2024/01/17 07:51:00;;;;;;;21.50;13.75;;;;;;;1.52;90.95;96025.59;4220378;28;20287;-87
2024/01/17 07:53:05;;;;;;;16.33;12.18;;;;;;;1.50;91.72;96015.44;4234626;27;20196;-85
2024/01/17 07:55:10;;;;;;;24.90;14.15;;;;;;;1.53;91.42;96016.94;4242697;27;20195;-86
2024/01/17 07:57:14;;;;;;;25.48;14.98;;;;;;;1.54;91.37;96013.47;4242532;27;20860;-86
2024/01/17 07:59:17;;;;;;;22.25;14.07;;;;;;;1.56;91.25;96012.41;4253394;27;20227;-87
2024/01/17 08:01:20;;;;;;;22.88;12.90;;;;;;;1.58;91.02;96012.31;4225902;27;20200;-88
2024/01/17 08:03:23;;;;;;;22.73;13.90;;;;;;;1.62;91.18;96024.03;4225732;27;20306;-88
2024/01/17 08:05:29;;;;;;;19.60;12.65;;;;;;;1.65;91.85;96016.13;4221214;27;20688;-88
2024/01/17 08:07:32;;;;;;;20.17;14.02;;;;;;;1.69;91.59;96012.44;4239755;27;20243;-87
2024/01/17 08:09:36;;;;;;;21.85;13.77;;;;;;;1.75;91.23;96017.97;4234390;27;20200;-88
2024/01/17 08:11:41;;;;;;;23.30;14.23;;;;;;;1.79;91.30;96013.44;4232705;27;20268;-87
2024/01/17 08:13:44;;;;;;;34.50;18.23;;;;;;;1.83;90.90;96010.56;4234756;27;20569;-86
2024/01/17 08:15:47;;;;;;;33.97;17.60;;;;;;;1.84;90.86;96004.53;4222423;28;20238;-85
2024/01/17 08:17:50;;;;;;;36.20;20.45;;;;;;;1.83;91.44;96008.00;4253966;27;20217;-85
2024/01/17 08:19:53;;;;;;;32.95;17.48;;;;;;;1.87;91.47;96004.31;4237954;27;20222;-84
2024/01/17 08:21:56;;;;;;;23.75;15.18;;;;;;;1.92;91.66;95999.69;4240374;27;20720;-84
2024/01/17 08:24:00;;;;;;;21.75;14.85;;;;;;;1.97;91.83;95997.59;4244174;27;20211;-85
2024/01/17 08:26:03;;;;;;;21.95;14.10;;;;;;;1.99;92.13;95998.34;4258279;27;20212;-85
2024/01/17 08:28:07;;;;;;;24.35;15.38;;;;;;;2.02;92.07;95996.38;4220058;27;20302;-84
2024/01/17 08:30:11;;;;;;;30.98;18.95;;;;;;;2.06;92.29;95986.69;4226645;27;20248;-84
2024/01/17 08:32:15;;;;;;;26.95;17.85;;;;;;;2.12;92.31;95999.97;4242946;27;20272;-84
2024/01/17 08:34:20;;;;;;;24.52;16.13;;;;;;;2.15;92.51;95988.63;4217972;27;20200;-85
2024/01/17 08:36:24;;;;;;;30.27;16.50;;;;;;;2.19;92.71;95987.50;4240334;27;20285;-85
2024/01/17 08:38:27;;;;;;;26.50;15.65;;;;;;;2.21;92.98;95986.47;4224859;27;20917;-85
2024/01/17 08:40:31;;;;;;;22.40;15.00;;;;;;;2.26;92.65;95986.97;4254391;27;20236;-85
2024/01/17 08:42:37;;;;;;;22.80;14.45;;;;;;;2.30;93.16;95979.84;4261988;27;20641;-85
2024/01/17 08:44:42;;;;;;;23.05;15.57;;;;;;;2.35;92.90;95968.34;4237414;27;20294;-84
2024/01/17 08:46:46;;;;;;;29.80;17.98;;;;;;;2.36;93.06;95963.09;4238408;27;20200;-85
2024/01/17 08:48:50;;;;;;;30.88;20.30;;;;;;;2.41;93.18;95960.19;4251570;27;20592;-85
2024/01/17 08:50:53;;;;;;;23.90;16.20;;;;;;;2.45;93.78;95954.72;4231188;27;20303;-85
2024/01/17 08:52:56;;;;;;;29.45;18.20;;;;;;;2.51;93.24;95944.00;4239176;27;20196;-85
2024/01/17 08:55:02;;;;;;;28.50;17.17;;;;;;;2.57;93.33;95943.56;4256907;27;20732;-84
2024/01/17 08:57:05;;;;;;;24.02;15.60;;;;;;;2.63;93.32;95950.00;4235709;27;20731;-85
2024/01/17 08:59:07;;;;;;;25.08;16.67;;;;;;;2.66;93.88;95940.34;4243770;27;20203;-84
2024/01/17 09:01:13;;;;;;;24.67;16.73;;;;;;;2.69;94.08;95937.53;4239099;27;20250;-84
2024/01/17 09:03:16;;;;;;;26.67;18.05;;;;;;;2.73;93.94;95936.38;4244370;27;20203;-84
2024/01/17 09:05:21;;;;;;;27.50;18.95;;;;;;;2.78;93.79;95936.84;4252166;27;20202;-84
2024/01/17 09:07:24;;;;;;;26.67;18.88;;;;;;;2.81;93.38;95936.63;4217364;27;20235;-83
2024/01/17 09:09:28;;;;;;;29.38;17.52;;;;;;;2.82;93.90;95931.38;4236341;27;20208;-84
2024/01/17 09:11:35;;;;;;;23.10;17.38;;;;;;;2.87;94.80;95926.72;4239565;27;20770;-86
2024/01/17 09:13:38;;;;;;;24.95;17.77;;;;;;;2.90;94.43;95930.81;4255004;27;20207;-87
2024/01/17 09:15:41;;;;;;;26.73;16.35;;;;;;;2.96;94.50;95918.34;4234863;27;20212;-87
2024/01/17 09:17:46;;;;;;;24.17;16.27;;;;;;;3.01;94.74;95913.66;4227427;27;20839;-87
2024/01/17 09:19:48;;;;;;;25.67;16.40;;;;;;;3.04;94.54;95913.44;4251993;27;20223;-88
2024/01/17 09:21:53;;;;;;;21.95;15.90;;;;;;;3.08;94.93;95907.13;4254581;27;20222;-87
2024/01/17 09:23:56;;;;;;;25.98;16.75;;;;;;;3.11;94.64;95909.47;4224099;27;20299;-86
2024/01/17 09:25:59;;;;;;;23.75;17.60;;;;;;;3.15;94.72;95912.63;4223190;27;20200;-88
2024/01/17 09:28:07;;;;;;;26.33;16.27;;;;;;;3.22;95.32;95911.22;4255472;27;20305;-87
2024/01/17 09:30:11;;;;;;;32.00;20.10;;;;;;;3.26;94.85;95905.75;4236846;27;20196;-89
2024/01/17 09:32:15;;;;;;;32.42;21.90;;;;;;;3.32;95.42;95902.72;4250724;27;20214;-88
2024/01/17 09:34:22;;;;;;;26.98;16.13;;;;;;;3.34;94.58;95896.50;4240333;27;20202;-88